sensor_id;sensor_type;location;lat;lon;timestamp;P1;durP1;ratioP1;P2;durP2;ratioP2
23802;SDS011;12082;51.786;6.018;2023-05-07T00:00:19;33.93;;;31.33;;
23802;SDS011;12082;51.786;6.018;2023-05-07T00:02:45;34.10;;;31.23;;
23802;SDS011;12082;51.786;6.018;2023-05-07T00:05:11;34.13;;;31.30;;
23802;SDS011;12082;51.786;6.018;2023-05-07T00:07:37;34.17;;;31.13;;
23802;SDS011;12082;51.786;6.018;2023-05-07T00:10:03;34.77;;;31.97;;
23802;SDS011;12082;51.786;6.018;2023-05-07T00:12:29;37.20;;;34.03;;
23802;SDS011;12082;51.786;6.018;2023-05-07T00:14:58;37.30;;;34.37;;
23802;SDS011;12082;51.786;6.018;2023-05-07T00:17:28;36.30;;;33.47;;
23802;SDS011;12082;51.786;6.018;2023-05-07T00:19:54;39.83;;;36.53;;
23802;SDS011;12082;51.786;6.018;2023-05-07T00:22:20;38.47;;;35.27;;
23802;SDS011;12082;51.786;6.018;2023-05-07T00:24:46;39.37;;;35.97;;
23802;SDS011;12082;51.786;6.018;2023-05-07T00:27:11;38.03;;;34.70;;
23802;SDS011;12082;51.786;6.018;2023-05-07T00:29:37;37.47;;;34.40;;
23802;SDS011;12082;51.786;6.018;2023-05-07T00:32:02;39.37;;;35.90;;
23802;SDS011;12082;51.786;6.018;2023-05-07T00:34:28;35.00;;;32.30;;
23802;SDS011;12082;51.786;6.018;2023-05-07T00:36:54;35.90;;;33.17;;
23802;SDS011;12082;51.786;6.018;2023-05-07T00:39:20;36.43;;;33.53;;
23802;SDS011;12082;51.786;6.018;2023-05-07T00:41:45;35.67;;;32.97;;
23802;SDS011;12082;51.786;6.018;2023-05-07T00:44:11;37.10;;;34.00;;
23802;SDS011;12082;51.786;6.018;2023-05-07T00:46:36;34.47;;;31.80;;
23802;SDS011;12082;51.786;6.018;2023-05-07T00:49:02;36.80;;;34.00;;
23802;SDS011;12082;51.786;6.018;2023-05-07T00:51:28;38.63;;;35.43;;
23802;SDS011;12082;51.786;6.018;2023-05-07T00:53:54;39.23;;;35.73;;
23802;SDS011;12082;51.786;6.018;2023-05-07T00:56:21;39.77;;;36.67;;
23802;SDS011;12082;51.786;6.018;2023-05-07T00:58:47;37.33;;;34.47;;
23802;SDS011;12082;51.786;6.018;2023-05-07T01:01:13;40.30;;;36.90;;
23802;SDS011;12082;51.786;6.018;2023-05-07T01:03:40;41.90;;;38.40;;
23802;SDS011;12082;51.786;6.018;2023-05-07T01:06:06;44.70;;;41.20;;
23802;SDS011;12082;51.786;6.018;2023-05-07T01:08:33;42.73;;;39.53;;
23802;SDS011;12082;51.786;6.018;2023-05-07T01:11:00;43.77;;;40.43;;
23802;SDS011;12082;51.786;6.018;2023-05-07T01:13:26;44.80;;;41.10;;
23802;SDS011;12082;51.786;6.018;2023-05-07T01:15:52;45.43;;;41.80;;
23802;SDS011;12082;51.786;6.018;2023-05-07T01:18:18;44.60;;;41.23;;
23802;SDS011;12082;51.786;6.018;2023-05-07T01:20:44;43.37;;;40.07;;
23802;SDS011;12082;51.786;6.018;2023-05-07T01:23:10;41.80;;;38.73;;
23802;SDS011;12082;51.786;6.018;2023-05-07T01:25:36;43.27;;;40.10;;
23802;SDS011;12082;51.786;6.018;2023-05-07T01:28:03;45.43;;;42.10;;
23802;SDS011;12082;51.786;6.018;2023-05-07T01:30:29;44.03;;;40.83;;
23802;SDS011;12082;51.786;6.018;2023-05-07T01:32:57;45.00;;;41.17;;
23802;SDS011;12082;51.786;6.018;2023-05-07T01:35:28;46.13;;;42.17;;
23802;SDS011;12082;51.786;6.018;2023-05-07T01:37:57;45.03;;;41.20;;
23802;SDS011;12082;51.786;6.018;2023-05-07T01:40:23;45.03;;;41.20;;
23802;SDS011;12082;51.786;6.018;2023-05-07T01:42:49;44.67;;;40.73;;
23802;SDS011;12082;51.786;6.018;2023-05-07T01:45:15;46.67;;;42.70;;
23802;SDS011;12082;51.786;6.018;2023-05-07T01:47:41;45.60;;;41.60;;
23802;SDS011;12082;51.786;6.018;2023-05-07T01:50:07;42.57;;;39.07;;
23802;SDS011;12082;51.786;6.018;2023-05-07T01:52:35;44.83;;;41.07;;
23802;SDS011;12082;51.786;6.018;2023-05-07T01:55:02;38.97;;;35.97;;
23802;SDS011;12082;51.786;6.018;2023-05-07T01:57:28;41.93;;;38.83;;
23802;SDS011;12082;51.786;6.018;2023-05-07T01:59:54;40.93;;;37.57;;
23802;SDS011;12082;51.786;6.018;2023-05-07T02:02:19;43.07;;;39.50;;
23802;SDS011;12082;51.786;6.018;2023-05-07T02:04:45;37.87;;;35.17;;
23802;SDS011;12082;51.786;6.018;2023-05-07T02:07:10;39.87;;;36.73;;
23802;SDS011;12082;51.786;6.018;2023-05-07T02:09:36;44.40;;;40.70;;
23802;SDS011;12082;51.786;6.018;2023-05-07T02:12:02;50.13;;;45.60;;
23802;SDS011;12082;51.786;6.018;2023-05-07T02:14:27;49.83;;;45.03;;
23802;SDS011;12082;51.786;6.018;2023-05-07T02:16:53;47.97;;;44.20;;
23802;SDS011;12082;51.786;6.018;2023-05-07T02:19:18;48.90;;;44.93;;
23802;SDS011;12082;51.786;6.018;2023-05-07T02:21:46;48.70;;;43.97;;
23802;SDS011;12082;51.786;6.018;2023-05-07T02:24:11;50.13;;;45.97;;
23802;SDS011;12082;51.786;6.018;2023-05-07T02:26:37;47.77;;;43.87;;
23802;SDS011;12082;51.786;6.018;2023-05-07T02:29:02;45.63;;;41.90;;
23802;SDS011;12082;51.786;6.018;2023-05-07T02:31:28;43.33;;;39.83;;
23802;SDS011;12082;51.786;6.018;2023-05-07T02:33:53;41.30;;;38.07;;
23802;SDS011;12082;51.786;6.018;2023-05-07T02:36:19;38.83;;;36.00;;
23802;SDS011;12082;51.786;6.018;2023-05-07T02:38:45;39.80;;;36.90;;
23802;SDS011;12082;51.786;6.018;2023-05-07T02:41:10;36.17;;;33.67;;
23802;SDS011;12082;51.786;6.018;2023-05-07T02:43:36;37.80;;;34.97;;
23802;SDS011;12082;51.786;6.018;2023-05-07T02:46:05;42.97;;;39.37;;
23802;SDS011;12082;51.786;6.018;2023-05-07T02:48:31;44.80;;;40.80;;
23802;SDS011;12082;51.786;6.018;2023-05-07T02:50:58;43.87;;;40.00;;
23802;SDS011;12082;51.786;6.018;2023-05-07T02:53:24;45.83;;;42.13;;
23802;SDS011;12082;51.786;6.018;2023-05-07T02:55:55;44.60;;;41.00;;
23802;SDS011;12082;51.786;6.018;2023-05-07T02:58:22;42.87;;;39.40;;
23802;SDS011;12082;51.786;6.018;2023-05-07T03:00:47;43.47;;;40.07;;
23802;SDS011;12082;51.786;6.018;2023-05-07T03:03:13;43.83;;;40.53;;
23802;SDS011;12082;51.786;6.018;2023-05-07T03:05:39;48.33;;;44.07;;
23802;SDS011;12082;51.786;6.018;2023-05-07T03:08:05;43.70;;;40.10;;
23802;SDS011;12082;51.786;6.018;2023-05-07T03:10:31;48.93;;;44.83;;
23802;SDS011;12082;51.786;6.018;2023-05-07T03:12:56;47.40;;;43.67;;
23802;SDS011;12082;51.786;6.018;2023-05-07T03:15:22;47.63;;;44.13;;
23802;SDS011;12082;51.786;6.018;2023-05-07T03:17:47;45.60;;;42.13;;
23802;SDS011;12082;51.786;6.018;2023-05-07T03:20:13;48.80;;;44.80;;
23802;SDS011;12082;51.786;6.018;2023-05-07T03:22:39;49.00;;;44.93;;
23802;SDS011;12082;51.786;6.018;2023-05-07T03:25:05;48.80;;;44.53;;
23802;SDS011;12082;51.786;6.018;2023-05-07T03:27:31;54.10;;;49.37;;
23802;SDS011;12082;51.786;6.018;2023-05-07T03:29:57;54.43;;;49.43;;
23802;SDS011;12082;51.786;6.018;2023-05-07T03:32:22;53.77;;;48.93;;
23802;SDS011;12082;51.786;6.018;2023-05-07T03:34:48;53.63;;;48.93;;
23802;SDS011;12082;51.786;6.018;2023-05-07T03:37:14;54.03;;;49.07;;
23802;SDS011;12082;51.786;6.018;2023-05-07T03:39:39;52.60;;;48.00;;
23802;SDS011;12082;51.786;6.018;2023-05-07T03:42:05;52.63;;;47.87;;
23802;SDS011;12082;51.786;6.018;2023-05-07T03:44:30;51.50;;;47.20;;
23802;SDS011;12082;51.786;6.018;2023-05-07T03:46:56;54.50;;;49.70;;
23802;SDS011;12082;51.786;6.018;2023-05-07T03:49:21;52.17;;;47.77;;
23802;SDS011;12082;51.786;6.018;2023-05-07T03:51:47;52.47;;;47.83;;
23802;SDS011;12082;51.786;6.018;2023-05-07T03:54:12;51.80;;;47.20;;
23802;SDS011;12082;51.786;6.018;2023-05-07T03:56:38;49.33;;;45.00;;
23802;SDS011;12082;51.786;6.018;2023-05-07T03:59:03;53.67;;;48.70;;
23802;SDS011;12082;51.786;6.018;2023-05-07T04:01:29;51.80;;;47.10;;
23802;SDS011;12082;51.786;6.018;2023-05-07T04:03:55;50.30;;;45.90;;
23802;SDS011;12082;51.786;6.018;2023-05-07T04:06:21;55.87;;;50.67;;
23802;SDS011;12082;51.786;6.018;2023-05-07T04:08:47;52.67;;;47.87;;
23802;SDS011;12082;51.786;6.018;2023-05-07T04:11:13;53.63;;;48.70;;
23802;SDS011;12082;51.786;6.018;2023-05-07T04:13:38;54.57;;;49.63;;
23802;SDS011;12082;51.786;6.018;2023-05-07T04:16:04;54.57;;;49.73;;
23802;SDS011;12082;51.786;6.018;2023-05-07T04:18:30;51.50;;;47.00;;
23802;SDS011;12082;51.786;6.018;2023-05-07T04:20:56;50.30;;;46.00;;
23802;SDS011;12082;51.786;6.018;2023-05-07T04:23:21;51.20;;;46.83;;
23802;SDS011;12082;51.786;6.018;2023-05-07T04:25:47;54.50;;;49.33;;
23802;SDS011;12082;51.786;6.018;2023-05-07T04:28:13;57.10;;;51.30;;
23802;SDS011;12082;51.786;6.018;2023-05-07T04:30:39;55.60;;;50.63;;
23802;SDS011;12082;51.786;6.018;2023-05-07T04:33:04;52.50;;;47.90;;
23802;SDS011;12082;51.786;6.018;2023-05-07T04:35:31;53.83;;;49.20;;
23802;SDS011;12082;51.786;6.018;2023-05-07T04:37:57;53.50;;;49.00;;
23802;SDS011;12082;51.786;6.018;2023-05-07T04:40:22;56.13;;;51.07;;
23802;SDS011;12082;51.786;6.018;2023-05-07T04:42:48;53.90;;;48.80;;
23802;SDS011;12082;51.786;6.018;2023-05-07T04:45:14;54.03;;;49.17;;
23802;SDS011;12082;51.786;6.018;2023-05-07T04:47:40;50.83;;;46.43;;
23802;SDS011;12082;51.786;6.018;2023-05-07T04:50:06;50.67;;;46.27;;
23802;SDS011;12082;51.786;6.018;2023-05-07T04:52:33;52.83;;;47.57;;
23802;SDS011;12082;51.786;6.018;2023-05-07T04:54:59;54.23;;;48.73;;
23802;SDS011;12082;51.786;6.018;2023-05-07T04:57:25;54.73;;;48.87;;
23802;SDS011;12082;51.786;6.018;2023-05-07T04:59:51;54.13;;;49.20;;
23802;SDS011;12082;51.786;6.018;2023-05-07T05:02:17;53.03;;;48.33;;
23802;SDS011;12082;51.786;6.018;2023-05-07T05:04:43;52.47;;;47.83;;
23802;SDS011;12082;51.786;6.018;2023-05-07T05:07:08;50.23;;;46.03;;
23802;SDS011;12082;51.786;6.018;2023-05-07T05:09:34;51.20;;;46.83;;
23802;SDS011;12082;51.786;6.018;2023-05-07T05:12:00;48.43;;;44.23;;
23802;SDS011;12082;51.786;6.018;2023-05-07T05:14:25;54.63;;;49.43;;
23802;SDS011;12082;51.786;6.018;2023-05-07T05:16:51;56.97;;;51.63;;
23802;SDS011;12082;51.786;6.018;2023-05-07T05:19:16;51.53;;;47.07;;
23802;SDS011;12082;51.786;6.018;2023-05-07T05:21:42;51.87;;;47.37;;
23802;SDS011;12082;51.786;6.018;2023-05-07T05:24:07;57.07;;;51.70;;
23802;SDS011;12082;51.786;6.018;2023-05-07T05:26:33;56.93;;;51.63;;
23802;SDS011;12082;51.786;6.018;2023-05-07T05:28:59;56.73;;;51.40;;
23802;SDS011;12082;51.786;6.018;2023-05-07T05:31:25;59.03;;;53.43;;
23802;SDS011;12082;51.786;6.018;2023-05-07T05:33:50;61.47;;;55.67;;
23802;SDS011;12082;51.786;6.018;2023-05-07T05:36:16;63.20;;;56.70;;
23802;SDS011;12082;51.786;6.018;2023-05-07T05:38:42;63.73;;;57.87;;
23802;SDS011;12082;51.786;6.018;2023-05-07T05:41:07;59.13;;;53.33;;
23802;SDS011;12082;51.786;6.018;2023-05-07T05:43:33;63.17;;;56.87;;
23802;SDS011;12082;51.786;6.018;2023-05-07T05:45:58;60.73;;;54.97;;
23802;SDS011;12082;51.786;6.018;2023-05-07T05:48:25;60.47;;;54.30;;
23802;SDS011;12082;51.786;6.018;2023-05-07T05:50:50;60.30;;;53.97;;
23802;SDS011;12082;51.786;6.018;2023-05-07T05:53:16;60.53;;;54.93;;
23802;SDS011;12082;51.786;6.018;2023-05-07T05:55:41;62.47;;;56.03;;
23802;SDS011;12082;51.786;6.018;2023-05-07T05:58:08;64.17;;;57.67;;
23802;SDS011;12082;51.786;6.018;2023-05-07T06:00:34;61.33;;;55.20;;
23802;SDS011;12082;51.786;6.018;2023-05-07T06:03:00;67.33;;;60.77;;
23802;SDS011;12082;51.786;6.018;2023-05-07T06:05:25;65.50;;;59.13;;
23802;SDS011;12082;51.786;6.018;2023-05-07T06:07:51;67.63;;;61.03;;
23802;SDS011;12082;51.786;6.018;2023-05-07T06:10:17;62.57;;;56.37;;
23802;SDS011;12082;51.786;6.018;2023-05-07T06:12:42;55.17;;;49.27;;
23802;SDS011;12082;51.786;6.018;2023-05-07T06:15:08;51.73;;;44.40;;
23802;SDS011;12082;51.786;6.018;2023-05-07T06:17:34;50.07;;;42.90;;
23802;SDS011;12082;51.786;6.018;2023-05-07T06:19:59;44.70;;;39.97;;
23802;SDS011;12082;51.786;6.018;2023-05-07T06:22:25;42.93;;;37.67;;
23802;SDS011;12082;51.786;6.018;2023-05-07T06:24:51;42.07;;;37.20;;
23802;SDS011;12082;51.786;6.018;2023-05-07T06:27:17;39.43;;;35.17;;
23802;SDS011;12082;51.786;6.018;2023-05-07T06:29:42;36.43;;;32.63;;
23802;SDS011;12082;51.786;6.018;2023-05-07T06:32:08;40.63;;;35.23;;
23802;SDS011;12082;51.786;6.018;2023-05-07T06:34:35;40.23;;;34.47;;
23802;SDS011;12082;51.786;6.018;2023-05-07T06:37:01;38.23;;;33.73;;
23802;SDS011;12082;51.786;6.018;2023-05-07T06:39:27;35.43;;;31.63;;
23802;SDS011;12082;51.786;6.018;2023-05-07T06:41:52;34.97;;;31.17;;
23802;SDS011;12082;51.786;6.018;2023-05-07T06:44:18;35.30;;;31.57;;
23802;SDS011;12082;51.786;6.018;2023-05-07T06:46:44;36.70;;;32.80;;
23802;SDS011;12082;51.786;6.018;2023-05-07T06:49:10;35.80;;;32.07;;
23802;SDS011;12082;51.786;6.018;2023-05-07T06:51:37;35.93;;;31.77;;
23802;SDS011;12082;51.786;6.018;2023-05-07T06:54:03;35.47;;;31.47;;
23802;SDS011;12082;51.786;6.018;2023-05-07T06:56:29;33.93;;;30.23;;
23802;SDS011;12082;51.786;6.018;2023-05-07T06:58:55;35.47;;;30.77;;
23802;SDS011;12082;51.786;6.018;2023-05-07T07:01:21;34.50;;;29.47;;
23802;SDS011;12082;51.786;6.018;2023-05-07T07:03:46;30.83;;;27.47;;
23802;SDS011;12082;51.786;6.018;2023-05-07T07:06:12;31.27;;;28.10;;
23802;SDS011;12082;51.786;6.018;2023-05-07T07:08:37;30.10;;;27.00;;
23802;SDS011;12082;51.786;6.018;2023-05-07T07:11:04;30.30;;;27.20;;
23802;SDS011;12082;51.786;6.018;2023-05-07T07:13:33;30.00;;;26.90;;
23802;SDS011;12082;51.786;6.018;2023-05-07T07:15:59;29.07;;;26.03;;
23802;SDS011;12082;51.786;6.018;2023-05-07T07:18:25;28.40;;;25.57;;
23802;SDS011;12082;51.786;6.018;2023-05-07T07:20:50;28.83;;;26.03;;
23802;SDS011;12082;51.786;6.018;2023-05-07T07:23:16;29.37;;;26.30;;
23802;SDS011;12082;51.786;6.018;2023-05-07T07:25:42;28.10;;;24.97;;
23802;SDS011;12082;51.786;6.018;2023-05-07T07:28:07;27.37;;;24.43;;
23802;SDS011;12082;51.786;6.018;2023-05-07T07:30:33;25.30;;;23.00;;
23802;SDS011;12082;51.786;6.018;2023-05-07T07:32:58;24.90;;;22.27;;
23802;SDS011;12082;51.786;6.018;2023-05-07T07:35:31;25.60;;;22.97;;
23802;SDS011;12082;51.786;6.018;2023-05-07T07:37:57;24.23;;;22.00;;
23802;SDS011;12082;51.786;6.018;2023-05-07T07:40:23;24.20;;;21.67;;
23802;SDS011;12082;51.786;6.018;2023-05-07T07:42:49;25.07;;;22.37;;
23802;SDS011;12082;51.786;6.018;2023-05-07T07:45:15;23.33;;;20.87;;
23802;SDS011;12082;51.786;6.018;2023-05-07T07:47:41;22.93;;;20.80;;
23802;SDS011;12082;51.786;6.018;2023-05-07T07:50:07;22.17;;;20.07;;
23802;SDS011;12082;51.786;6.018;2023-05-07T07:52:33;22.33;;;20.00;;
23802;SDS011;12082;51.786;6.018;2023-05-07T07:54:59;21.37;;;19.07;;
23802;SDS011;12082;51.786;6.018;2023-05-07T07:57:25;21.43;;;19.33;;
23802;SDS011;12082;51.786;6.018;2023-05-07T07:59:50;19.27;;;17.27;;
23802;SDS011;12082;51.786;6.018;2023-05-07T08:02:16;19.97;;;18.07;;
23802;SDS011;12082;51.786;6.018;2023-05-07T08:04:42;20.47;;;18.43;;
23802;SDS011;12082;51.786;6.018;2023-05-07T08:07:09;20.63;;;18.63;;
23802;SDS011;12082;51.786;6.018;2023-05-07T08:09:35;20.77;;;18.47;;
23802;SDS011;12082;51.786;6.018;2023-05-07T08:12:01;18.93;;;17.13;;
23802;SDS011;12082;51.786;6.018;2023-05-07T08:14:27;19.30;;;17.40;;
23802;SDS011;12082;51.786;6.018;2023-05-07T08:16:53;19.37;;;17.47;;
23802;SDS011;12082;51.786;6.018;2023-05-07T08:19:19;18.93;;;17.03;;
23802;SDS011;12082;51.786;6.018;2023-05-07T08:21:45;19.53;;;17.63;;
23802;SDS011;12082;51.786;6.018;2023-05-07T08:24:13;19.07;;;17.17;;
23802;SDS011;12082;51.786;6.018;2023-05-07T08:26:39;17.77;;;15.97;;
23802;SDS011;12082;51.786;6.018;2023-05-07T08:29:05;18.03;;;16.33;;
23802;SDS011;12082;51.786;6.018;2023-05-07T08:31:30;20.80;;;18.97;;
23802;SDS011;12082;51.786;6.018;2023-05-07T08:33:57;19.13;;;16.70;;
23802;SDS011;12082;51.786;6.018;2023-05-07T08:36:23;18.37;;;16.57;;
23802;SDS011;12082;51.786;6.018;2023-05-07T08:38:49;18.60;;;16.67;;
23802;SDS011;12082;51.786;6.018;2023-05-07T08:41:15;20.67;;;18.67;;
23802;SDS011;12082;51.786;6.018;2023-05-07T08:43:41;19.73;;;17.93;;
23802;SDS011;12082;51.786;6.018;2023-05-07T08:46:09;21.00;;;19.40;;
23802;SDS011;12082;51.786;6.018;2023-05-07T08:48:36;26.60;;;24.50;;
23802;SDS011;12082;51.786;6.018;2023-05-07T08:51:02;20.17;;;18.47;;
23802;SDS011;12082;51.786;6.018;2023-05-07T08:53:27;22.50;;;20.63;;
23802;SDS011;12082;51.786;6.018;2023-05-07T08:55:53;16.83;;;15.30;;
23802;SDS011;12082;51.786;6.018;2023-05-07T08:58:19;15.70;;;14.30;;
23802;SDS011;12082;51.786;6.018;2023-05-07T09:00:45;15.77;;;14.10;;
23802;SDS011;12082;51.786;6.018;2023-05-07T09:03:12;19.00;;;17.17;;
23802;SDS011;12082;51.786;6.018;2023-05-07T09:05:38;17.90;;;16.30;;
23802;SDS011;12082;51.786;6.018;2023-05-07T09:08:05;18.20;;;16.70;;
23802;SDS011;12082;51.786;6.018;2023-05-07T09:10:32;15.43;;;13.37;;
23802;SDS011;12082;51.786;6.018;2023-05-07T09:12:59;14.53;;;12.30;;
23802;SDS011;12082;51.786;6.018;2023-05-07T09:15:25;13.90;;;12.60;;
23802;SDS011;12082;51.786;6.018;2023-05-07T09:17:51;14.07;;;12.87;;
23802;SDS011;12082;51.786;6.018;2023-05-07T09:20:16;12.93;;;11.83;;
23802;SDS011;12082;51.786;6.018;2023-05-07T09:22:43;16.17;;;14.67;;
23802;SDS011;12082;51.786;6.018;2023-05-07T09:25:09;15.17;;;13.77;;
23802;SDS011;12082;51.786;6.018;2023-05-07T09:27:35;16.13;;;14.73;;
23802;SDS011;12082;51.786;6.018;2023-05-07T09:30:04;24.10;;;22.30;;
23802;SDS011;12082;51.786;6.018;2023-05-07T09:32:36;34.20;;;31.47;;
23802;SDS011;12082;51.786;6.018;2023-05-07T09:35:05;22.03;;;20.40;;
23802;SDS011;12082;51.786;6.018;2023-05-07T09:37:31;24.17;;;22.13;;
23802;SDS011;12082;51.786;6.018;2023-05-07T09:39:57;27.33;;;25.43;;
23802;SDS011;12082;51.786;6.018;2023-05-07T09:42:24;20.33;;;18.73;;
23802;SDS011;12082;51.786;6.018;2023-05-07T09:44:51;25.77;;;23.77;;
23802;SDS011;12082;51.786;6.018;2023-05-07T09:47:20;38.07;;;35.53;;
23802;SDS011;12082;51.786;6.018;2023-05-07T09:49:49;28.50;;;26.80;;
23802;SDS011;12082;51.786;6.018;2023-05-07T09:52:18;26.23;;;24.23;;
23802;SDS011;12082;51.786;6.018;2023-05-07T09:54:45;18.60;;;16.97;;
23802;SDS011;12082;51.786;6.018;2023-05-07T09:57:14;24.10;;;22.20;;
23802;SDS011;12082;51.786;6.018;2023-05-07T09:59:42;23.40;;;21.53;;
23802;SDS011;12082;51.786;6.018;2023-05-07T10:02:09;18.30;;;16.60;;
23802;SDS011;12082;51.786;6.018;2023-05-07T10:04:35;19.77;;;17.90;;
23802;SDS011;12082;51.786;6.018;2023-05-07T10:07:01;16.90;;;15.40;;
23802;SDS011;12082;51.786;6.018;2023-05-07T10:09:29;15.63;;;14.13;;
23802;SDS011;12082;51.786;6.018;2023-05-07T10:11:56;13.00;;;12.07;;
23802;SDS011;12082;51.786;6.018;2023-05-07T10:14:22;14.30;;;13.10;;
23802;SDS011;12082;51.786;6.018;2023-05-07T10:16:48;13.97;;;12.57;;
23802;SDS011;12082;51.786;6.018;2023-05-07T10:19:14;12.97;;;11.93;;
23802;SDS011;12082;51.786;6.018;2023-05-07T10:21:43;15.60;;;14.17;;
23802;SDS011;12082;51.786;6.018;2023-05-07T10:24:17;13.40;;;12.37;;
23802;SDS011;12082;51.786;6.018;2023-05-07T10:26:56;14.67;;;13.67;;
23802;SDS011;12082;51.786;6.018;2023-05-07T10:34:34;11.90;;;11.07;;
23802;SDS011;12082;51.786;6.018;2023-05-07T10:37:02;10.93;;;10.03;;
23802;SDS011;12082;51.786;6.018;2023-05-07T10:39:29;12.00;;;11.17;;
23802;SDS011;12082;51.786;6.018;2023-05-07T10:41:55;13.40;;;12.30;;
23802;SDS011;12082;51.786;6.018;2023-05-07T10:47:12;12.53;;;11.30;;
23802;SDS011;12082;51.786;6.018;2023-05-07T10:54:44;14.27;;;13.37;;
23802;SDS011;12082;51.786;6.018;2023-05-07T11:00:01;15.40;;;14.20;;
23802;SDS011;12082;51.786;6.018;2023-05-07T11:05:25;15.07;;;14.07;;
23802;SDS011;12082;51.786;6.018;2023-05-07T11:07:55;14.43;;;13.50;;
23802;SDS011;12082;51.786;6.018;2023-05-07T11:10:21;15.53;;;14.43;;
23802;SDS011;12082;51.786;6.018;2023-05-07T11:12:48;14.70;;;13.70;;
23802;SDS011;12082;51.786;6.018;2023-05-07T11:15:36;14.97;;;13.80;;
23802;SDS011;12082;51.786;6.018;2023-05-07T11:18:10;13.53;;;12.43;;
23802;SDS011;12082;51.786;6.018;2023-05-07T11:26:00;12.57;;;11.70;;
23802;SDS011;12082;51.786;6.018;2023-05-07T11:28:27;14.50;;;13.40;;
23802;SDS011;12082;51.786;6.018;2023-05-07T11:30:54;12.00;;;11.10;;
23802;SDS011;12082;51.786;6.018;2023-05-07T11:33:21;13.80;;;12.80;;
23802;SDS011;12082;51.786;6.018;2023-05-07T11:35:47;16.50;;;15.30;;
23802;SDS011;12082;51.786;6.018;2023-05-07T11:38:13;13.83;;;12.63;;
23802;SDS011;12082;51.786;6.018;2023-05-07T11:43:21;17.83;;;16.63;;
23802;SDS011;12082;51.786;6.018;2023-05-07T11:45:47;20.03;;;18.47;;
23802;SDS011;12082;51.786;6.018;2023-05-07T11:48:13;13.83;;;12.83;;
23802;SDS011;12082;51.786;6.018;2023-05-07T11:50:53;18.67;;;17.37;;
23802;SDS011;12082;51.786;6.018;2023-05-07T11:53:25;20.33;;;18.90;;
23802;SDS011;12082;51.786;6.018;2023-05-07T11:55:52;25.67;;;23.87;;
23802;SDS011;12082;51.786;6.018;2023-05-07T11:58:22;25.10;;;23.60;;
23802;SDS011;12082;51.786;6.018;2023-05-07T12:00:52;21.47;;;20.13;;
23802;SDS011;12082;51.786;6.018;2023-05-07T12:03:18;28.40;;;26.60;;
23802;SDS011;12082;51.786;6.018;2023-05-07T12:05:45;26.73;;;24.83;;
23802;SDS011;12082;51.786;6.018;2023-05-07T12:08:14;19.43;;;18.13;;
23802;SDS011;12082;51.786;6.018;2023-05-07T12:10:44;24.77;;;22.90;;
23802;SDS011;12082;51.786;6.018;2023-05-07T12:13:29;26.30;;;24.70;;
23802;SDS011;12082;51.786;6.018;2023-05-07T12:15:57;31.90;;;29.60;;
23802;SDS011;12082;51.786;6.018;2023-05-07T12:18:23;23.87;;;22.33;;
23802;SDS011;12082;51.786;6.018;2023-05-07T12:20:50;32.57;;;29.77;;
23802;SDS011;12082;51.786;6.018;2023-05-07T12:23:16;32.33;;;30.53;;
23802;SDS011;12082;51.786;6.018;2023-05-07T12:25:42;27.30;;;25.50;;
23802;SDS011;12082;51.786;6.018;2023-05-07T12:28:18;21.07;;;19.37;;
23802;SDS011;12082;51.786;6.018;2023-05-07T12:30:44;26.67;;;25.07;;
23802;SDS011;12082;51.786;6.018;2023-05-07T12:33:11;27.30;;;25.53;;
23802;SDS011;12082;51.786;6.018;2023-05-07T12:35:41;29.40;;;27.60;;
23802;SDS011;12082;51.786;6.018;2023-05-07T12:38:08;25.17;;;23.73;;
23802;SDS011;12082;51.786;6.018;2023-05-07T12:40:42;24.43;;;22.50;;
23802;SDS011;12082;51.786;6.018;2023-05-07T12:43:26;28.43;;;26.90;;
23802;SDS011;12082;51.786;6.018;2023-05-07T12:45:56;23.57;;;22.03;;
23802;SDS011;12082;51.786;6.018;2023-05-07T12:48:24;27.87;;;26.30;;
23802;SDS011;12082;51.786;6.018;2023-05-07T12:50:55;25.83;;;24.23;;
23802;SDS011;12082;51.786;6.018;2023-05-07T12:53:22;26.00;;;24.50;;
23802;SDS011;12082;51.786;6.018;2023-05-07T12:55:54;27.40;;;25.33;;
23802;SDS011;12082;51.786;6.018;2023-05-07T12:58:25;23.27;;;21.67;;
23802;SDS011;12082;51.786;6.018;2023-05-07T13:00:52;28.60;;;26.93;;
23802;SDS011;12082;51.786;6.018;2023-05-07T13:05:48;20.03;;;18.80;;
23802;SDS011;12082;51.786;6.018;2023-05-07T13:08:22;27.63;;;25.93;;
23802;SDS011;12082;51.786;6.018;2023-05-07T13:10:49;23.23;;;21.93;;
23802;SDS011;12082;51.786;6.018;2023-05-07T13:13:14;24.73;;;23.33;;
23802;SDS011;12082;51.786;6.018;2023-05-07T13:15:40;20.57;;;19.37;;
23802;SDS011;12082;51.786;6.018;2023-05-07T13:18:05;18.50;;;17.30;;
23802;SDS011;12082;51.786;6.018;2023-05-07T13:20:31;18.60;;;17.30;;
23802;SDS011;12082;51.786;6.018;2023-05-07T13:22:57;28.57;;;26.87;;
23802;SDS011;12082;51.786;6.018;2023-05-07T13:25:22;35.00;;;33.03;;
23802;SDS011;12082;51.786;6.018;2023-05-07T13:27:48;38.33;;;36.43;;
23802;SDS011;12082;51.786;6.018;2023-05-07T13:30:13;38.97;;;37.00;;
23802;SDS011;12082;51.786;6.018;2023-05-07T13:32:39;38.60;;;36.60;;
23802;SDS011;12082;51.786;6.018;2023-05-07T13:35:05;40.53;;;38.53;;
23802;SDS011;12082;51.786;6.018;2023-05-07T13:37:31;42.97;;;40.73;;
23802;SDS011;12082;51.786;6.018;2023-05-07T13:39:56;39.93;;;37.83;;
23802;SDS011;12082;51.786;6.018;2023-05-07T13:42:22;37.07;;;35.03;;
23802;SDS011;12082;51.786;6.018;2023-05-07T13:44:47;36.53;;;34.50;;
23802;SDS011;12082;51.786;6.018;2023-05-07T13:47:13;40.43;;;38.33;;
23802;SDS011;12082;51.786;6.018;2023-05-07T13:49:38;42.37;;;40.20;;
23802;SDS011;12082;51.786;6.018;2023-05-07T13:52:04;43.33;;;41.03;;
23802;SDS011;12082;51.786;6.018;2023-05-07T13:54:30;44.53;;;42.37;;
23802;SDS011;12082;51.786;6.018;2023-05-07T13:56:55;43.10;;;40.97;;
23802;SDS011;12082;51.786;6.018;2023-05-07T13:59:21;46.20;;;43.70;;
23802;SDS011;12082;51.786;6.018;2023-05-07T14:01:46;38.60;;;36.40;;
23802;SDS011;12082;51.786;6.018;2023-05-07T14:04:12;44.30;;;42.07;;
23802;SDS011;12082;51.786;6.018;2023-05-07T14:06:37;50.07;;;47.37;;
23802;SDS011;12082;51.786;6.018;2023-05-07T14:09:03;54.60;;;51.60;;
23802;SDS011;12082;51.786;6.018;2023-05-07T14:11:29;54.27;;;51.40;;
23802;SDS011;12082;51.786;6.018;2023-05-07T14:13:55;47.93;;;45.43;;
23802;SDS011;12082;51.786;6.018;2023-05-07T14:16:21;54.20;;;51.33;;
23802;SDS011;12082;51.786;6.018;2023-05-07T14:18:47;61.70;;;58.40;;
23802;SDS011;12082;51.786;6.018;2023-05-07T14:21:12;44.87;;;42.37;;
23802;SDS011;12082;51.786;6.018;2023-05-07T14:23:38;28.63;;;26.60;;
23802;SDS011;12082;51.786;6.018;2023-05-07T14:26:04;28.47;;;26.67;;
23802;SDS011;12082;51.786;6.018;2023-05-07T14:28:30;23.03;;;21.53;;
23802;SDS011;12082;51.786;6.018;2023-05-07T14:30:56;17.43;;;16.20;;
23802;SDS011;12082;51.786;6.018;2023-05-07T14:33:21;20.03;;;18.83;;
23802;SDS011;12082;51.786;6.018;2023-05-07T14:35:47;19.13;;;17.97;;
23802;SDS011;12082;51.786;6.018;2023-05-07T14:38:14;18.03;;;16.43;;
23802;SDS011;12082;51.786;6.018;2023-05-07T14:40:40;18.67;;;17.27;;
23802;SDS011;12082;51.786;6.018;2023-05-07T14:43:06;18.03;;;16.67;;
23802;SDS011;12082;51.786;6.018;2023-05-07T14:45:31;21.90;;;20.40;;